sensor_id;sensor_type;location;lat;lon;timestamp;temperature;humidity
44047;DHT22;29713;-33.888;151.150;2023-05-16T00:01:18;17.50;99.90
44047;DHT22;29713;-33.888;151.150;2023-05-16T00:03:46;17.60;99.90
44047;DHT22;29713;-33.888;151.150;2023-05-16T00:06:13;17.70;99.90
44047;DHT22;29713;-33.888;151.150;2023-05-16T00:08:41;17.80;99.90
44047;DHT22;29713;-33.888;151.150;2023-05-16T00:11:08;17.90;99.90
44047;DHT22;29713;-33.888;151.150;2023-05-16T00:13:35;18.00;99.90
44047;DHT22;29713;-33.888;151.150;2023-05-16T00:16:03;18.20;99.90
44047;DHT22;29713;-33.888;151.150;2023-05-16T00:18:30;18.30;99.90
44047;DHT22;29713;-33.888;151.150;2023-05-16T00:20:57;18.50;99.90
44047;DHT22;29713;-33.888;151.150;2023-05-16T00:23:25;18.60;99.90
44047;DHT22;29713;-33.888;151.150;2023-05-16T00:25:52;18.70;99.90
44047;DHT22;29713;-33.888;151.150;2023-05-16T00:28:20;18.80;99.90
44047;DHT22;29713;-33.888;151.150;2023-05-16T00:30:47;18.90;99.90
44047;DHT22;29713;-33.888;151.150;2023-05-16T00:33:15;19.10;99.90
44047;DHT22;29713;-33.888;151.150;2023-05-16T00:35:42;19.30;99.90
44047;DHT22;29713;-33.888;151.150;2023-05-16T00:38:10;19.30;99.90
44047;DHT22;29713;-33.888;151.150;2023-05-16T00:40:37;19.40;99.90
44047;DHT22;29713;-33.888;151.150;2023-05-16T00:43:05;19.50;99.90
44047;DHT22;29713;-33.888;151.150;2023-05-16T00:45:32;19.70;99.90
44047;DHT22;29713;-33.888;151.150;2023-05-16T00:47:59;19.80;99.90
44047;DHT22;29713;-33.888;151.150;2023-05-16T00:50:27;20.10;99.90
44047;DHT22;29713;-33.888;151.150;2023-05-16T00:52:54;20.20;99.90
44047;DHT22;29713;-33.888;151.150;2023-05-16T00:55:22;20.30;99.90
44047;DHT22;29713;-33.888;151.150;2023-05-16T00:57:52;20.40;99.90
44047;DHT22;29713;-33.888;151.150;2023-05-16T01:00:20;20.40;99.90
44047;DHT22;29713;-33.888;151.150;2023-05-16T01:02:47;20.40;99.90
44047;DHT22;29713;-33.888;151.150;2023-05-16T01:05:25;20.60;99.90
44047;DHT22;29713;-33.888;151.150;2023-05-16T01:07:52;20.70;99.90
44047;DHT22;29713;-33.888;151.150;2023-05-16T01:10:20;20.90;99.90
44047;DHT22;29713;-33.888;151.150;2023-05-16T01:13:10;21.00;99.90
44047;DHT22;29713;-33.888;151.150;2023-05-16T01:15:49;21.20;99.90
44047;DHT22;29713;-33.888;151.150;2023-05-16T01:24:13;21.30;99.90
44047;DHT22;29713;-33.888;151.150;2023-05-16T01:26:45;21.50;99.90
44047;DHT22;29713;-33.888;151.150;2023-05-16T01:29:13;21.60;99.90
44047;DHT22;29713;-33.888;151.150;2023-05-16T01:31:41;21.70;99.90
44047;DHT22;29713;-33.888;151.150;2023-05-16T01:34:09;21.70;99.90
44047;DHT22;29713;-33.888;151.150;2023-05-16T01:39:51;21.90;99.90
44047;DHT22;29713;-33.888;151.150;2023-05-16T01:42:21;22.00;99.90
44047;DHT22;29713;-33.888;151.150;2023-05-16T01:44:56;22.20;99.90
44047;DHT22;29713;-33.888;151.150;2023-05-16T01:47:25;22.40;99.90
44047;DHT22;29713;-33.888;151.150;2023-05-16T01:52:54;23.00;99.90
44047;DHT22;29713;-33.888;151.150;2023-05-16T01:58:06;23.80;99.90
44047;DHT22;29713;-33.888;151.150;2023-05-16T02:00:34;23.90;99.90
44047;DHT22;29713;-33.888;151.150;2023-05-16T02:03:01;24.30;99.90
44047;DHT22;29713;-33.888;151.150;2023-05-16T02:05:32;24.40;99.90
44047;DHT22;29713;-33.888;151.150;2023-05-16T02:07:59;24.70;99.90
44047;DHT22;29713;-33.888;151.150;2023-05-16T02:10:27;25.00;99.90
44047;DHT22;29713;-33.888;151.150;2023-05-16T02:12:54;25.30;99.90
44047;DHT22;29713;-33.888;151.150;2023-05-16T02:15:22;25.70;99.90
44047;DHT22;29713;-33.888;151.150;2023-05-16T02:17:49;25.80;99.90
44047;DHT22;29713;-33.888;151.150;2023-05-16T02:20:17;25.90;99.90
44047;DHT22;29713;-33.888;151.150;2023-05-16T02:22:44;26.20;99.90
44047;DHT22;29713;-33.888;151.150;2023-05-16T02:25:13;26.40;99.90
44047;DHT22;29713;-33.888;151.150;2023-05-16T02:27:41;26.30;99.90
44047;DHT22;29713;-33.888;151.150;2023-05-16T02:30:10;26.60;99.90
44047;DHT22;29713;-33.888;151.150;2023-05-16T02:32:40;26.90;99.90
44047;DHT22;29713;-33.888;151.150;2023-05-16T02:35:10;27.30;99.90
44047;DHT22;29713;-33.888;151.150;2023-05-16T02:37:38;27.60;99.90
44047;DHT22;29713;-33.888;151.150;2023-05-16T02:40:06;27.80;99.90
44047;DHT22;29713;-33.888;151.150;2023-05-16T02:42:34;28.00;99.90
44047;DHT22;29713;-33.888;151.150;2023-05-16T02:45:01;27.80;99.90
44047;DHT22;29713;-33.888;151.150;2023-05-16T02:47:29;27.90;99.90
44047;DHT22;29713;-33.888;151.150;2023-05-16T02:49:56;28.10;99.90
44047;DHT22;29713;-33.888;151.150;2023-05-16T02:52:23;28.30;99.90
44047;DHT22;29713;-33.888;151.150;2023-05-16T02:54:51;28.30;99.90
44047;DHT22;29713;-33.888;151.150;2023-05-16T02:57:18;28.50;99.90
44047;DHT22;29713;-33.888;151.150;2023-05-16T02:59:45;28.50;99.90
44047;DHT22;29713;-33.888;151.150;2023-05-16T03:02:13;28.40;99.90
44047;DHT22;29713;-33.888;151.150;2023-05-16T03:04:40;28.30;99.90
44047;DHT22;29713;-33.888;151.150;2023-05-16T03:07:07;28.20;99.90
44047;DHT22;29713;-33.888;151.150;2023-05-16T03:09:35;28.20;99.90
44047;DHT22;29713;-33.888;151.150;2023-05-16T03:12:05;28.10;99.90
44047;DHT22;29713;-33.888;151.150;2023-05-16T03:14:32;27.90;99.90
44047;DHT22;29713;-33.888;151.150;2023-05-16T03:17:00;27.80;99.90
44047;DHT22;29713;-33.888;151.150;2023-05-16T03:19:27;27.90;99.90
44047;DHT22;29713;-33.888;151.150;2023-05-16T03:21:54;28.00;99.90
44047;DHT22;29713;-33.888;151.150;2023-05-16T03:24:23;27.90;99.90
44047;DHT22;29713;-33.888;151.150;2023-05-16T03:26:50;27.90;99.90
44047;DHT22;29713;-33.888;151.150;2023-05-16T03:29:18;27.80;99.90
44047;DHT22;29713;-33.888;151.150;2023-05-16T03:31:45;27.80;99.90
44047;DHT22;29713;-33.888;151.150;2023-05-16T03:34:12;27.80;99.90
44047;DHT22;29713;-33.888;151.150;2023-05-16T03:36:41;27.90;99.90
44047;DHT22;29713;-33.888;151.150;2023-05-16T03:39:08;27.90;99.90
44047;DHT22;29713;-33.888;151.150;2023-05-16T03:41:36;27.50;99.90
44047;DHT22;29713;-33.888;151.150;2023-05-16T03:44:03;27.30;99.90
44047;DHT22;29713;-33.888;151.150;2023-05-16T03:46:30;27.30;99.90
44047;DHT22;29713;-33.888;151.150;2023-05-16T03:48:58;27.20;99.90
44047;DHT22;29713;-33.888;151.150;2023-05-16T03:51:25;27.20;99.90
44047;DHT22;29713;-33.888;151.150;2023-05-16T03:53:54;27.30;99.90
44047;DHT22;29713;-33.888;151.150;2023-05-16T03:56:21;27.20;99.90
44047;DHT22;29713;-33.888;151.150;2023-05-16T03:58:48;26.90;99.90
44047;DHT22;29713;-33.888;151.150;2023-05-16T04:01:16;26.80;99.90
44047;DHT22;29713;-33.888;151.150;2023-05-16T04:03:43;26.60;99.90
44047;DHT22;29713;-33.888;151.150;2023-05-16T04:06:11;26.50;99.90
44047;DHT22;29713;-33.888;151.150;2023-05-16T04:08:38;26.50;99.90
44047;DHT22;29713;-33.888;151.150;2023-05-16T04:11:06;26.40;99.90
44047;DHT22;29713;-33.888;151.150;2023-05-16T04:13:37;26.50;99.90
44047;DHT22;29713;-33.888;151.150;2023-05-16T04:16:05;26.60;99.90
44047;DHT22;29713;-33.888;151.150;2023-05-16T04:18:32;26.50;99.90
44047;DHT22;29713;-33.888;151.150;2023-05-16T04:21:00;26.40;99.90
44047;DHT22;29713;-33.888;151.150;2023-05-16T04:23:28;26.30;99.90
44047;DHT22;29713;-33.888;151.150;2023-05-16T04:25:58;26.10;99.90
44047;DHT22;29713;-33.888;151.150;2023-05-16T04:28:27;26.00;99.90
44047;DHT22;29713;-33.888;151.150;2023-05-16T04:30:54;25.70;99.90
44047;DHT22;29713;-33.888;151.150;2023-05-16T04:33:22;25.60;99.90
44047;DHT22;29713;-33.888;151.150;2023-05-16T04:35:49;25.50;99.90
44047;DHT22;29713;-33.888;151.150;2023-05-16T04:38:18;25.30;99.90
44047;DHT22;29713;-33.888;151.150;2023-05-16T04:40:45;25.00;99.90
44047;DHT22;29713;-33.888;151.150;2023-05-16T04:43:15;24.70;99.90
44047;DHT22;29713;-33.888;151.150;2023-05-16T04:45:42;24.40;99.90
44047;DHT22;29713;-33.888;151.150;2023-05-16T04:48:10;24.30;99.90
44047;DHT22;29713;-33.888;151.150;2023-05-16T04:50:37;24.10;99.90
44047;DHT22;29713;-33.888;151.150;2023-05-16T04:53:05;23.80;99.90
44047;DHT22;29713;-33.888;151.150;2023-05-16T04:55:32;23.60;99.90
44047;DHT22;29713;-33.888;151.150;2023-05-16T04:58:00;23.40;99.90
44047;DHT22;29713;-33.888;151.150;2023-05-16T05:00:27;23.10;99.90
44047;DHT22;29713;-33.888;151.150;2023-05-16T05:02:54;22.80;99.90
44047;DHT22;29713;-33.888;151.150;2023-05-16T05:05:22;22.60;99.90
44047;DHT22;29713;-33.888;151.150;2023-05-16T05:07:49;22.30;99.90
44047;DHT22;29713;-33.888;151.150;2023-05-16T05:10:16;22.10;99.90
44047;DHT22;29713;-33.888;151.150;2023-05-16T05:12:44;22.00;99.90
44047;DHT22;29713;-33.888;151.150;2023-05-16T05:15:11;21.90;99.90
44047;DHT22;29713;-33.888;151.150;2023-05-16T05:17:40;21.80;99.90
44047;DHT22;29713;-33.888;151.150;2023-05-16T05:20:07;21.60;99.90
44047;DHT22;29713;-33.888;151.150;2023-05-16T05:22:35;21.50;99.90
44047;DHT22;29713;-33.888;151.150;2023-05-16T05:25:04;21.40;99.90
44047;DHT22;29713;-33.888;151.150;2023-05-16T05:27:31;21.40;99.90
44047;DHT22;29713;-33.888;151.150;2023-05-16T05:29:59;21.30;99.90
44047;DHT22;29713;-33.888;151.150;2023-05-16T05:32:26;21.30;99.90
44047;DHT22;29713;-33.888;151.150;2023-05-16T05:34:53;21.40;99.90
44047;DHT22;29713;-33.888;151.150;2023-05-16T05:37:21;21.40;99.90
44047;DHT22;29713;-33.888;151.150;2023-05-16T05:39:48;21.40;99.90
44047;DHT22;29713;-33.888;151.150;2023-05-16T05:42:16;21.40;99.90
44047;DHT22;29713;-33.888;151.150;2023-05-16T05:44:43;21.40;99.90
44047;DHT22;29713;-33.888;151.150;2023-05-16T05:47:11;21.30;99.90
44047;DHT22;29713;-33.888;151.150;2023-05-16T05:49:38;21.30;99.90
44047;DHT22;29713;-33.888;151.150;2023-05-16T05:52:06;21.20;99.90
44047;DHT22;29713;-33.888;151.150;2023-05-16T05:54:33;21.20;99.90
44047;DHT22;29713;-33.888;151.150;2023-05-16T05:57:00;21.10;99.90
44047;DHT22;29713;-33.888;151.150;2023-05-16T05:59:28;21.10;99.90
44047;DHT22;29713;-33.888;151.150;2023-05-16T06:01:55;21.00;99.90
44047;DHT22;29713;-33.888;151.150;2023-05-16T06:04:23;20.90;99.90
44047;DHT22;29713;-33.888;151.150;2023-05-16T06:06:51;20.90;99.90
44047;DHT22;29713;-33.888;151.150;2023-05-16T06:09:19;20.80;99.90
44047;DHT22;29713;-33.888;151.150;2023-05-16T06:11:47;20.80;99.90
44047;DHT22;29713;-33.888;151.150;2023-05-16T06:14:14;20.80;99.90
44047;DHT22;29713;-33.888;151.150;2023-05-16T06:16:42;20.80;99.90
44047;DHT22;29713;-33.888;151.150;2023-05-16T06:19:10;20.80;99.90
44047;DHT22;29713;-33.888;151.150;2023-05-16T06:21:42;20.80;99.90
44047;DHT22;29713;-33.888;151.150;2023-05-16T06:24:09;20.70;99.90
44047;DHT22;29713;-33.888;151.150;2023-05-16T06:26:37;20.60;99.90
44047;DHT22;29713;-33.888;151.150;2023-05-16T06:29:05;20.60;99.90
44047;DHT22;29713;-33.888;151.150;2023-05-16T06:31:32;20.50;99.90
44047;DHT22;29713;-33.888;151.150;2023-05-16T06:33:59;20.40;99.90
44047;DHT22;29713;-33.888;151.150;2023-05-16T06:36:27;20.30;99.90
44047;DHT22;29713;-33.888;151.150;2023-05-16T06:38:54;20.20;99.90
44047;DHT22;29713;-33.888;151.150;2023-05-16T06:41:21;20.10;99.90
44047;DHT22;29713;-33.888;151.150;2023-05-16T06:43:49;20.00;99.90
44047;DHT22;29713;-33.888;151.150;2023-05-16T06:46:17;19.90;99.90
44047;DHT22;29713;-33.888;151.150;2023-05-16T06:48:47;19.80;99.90
44047;DHT22;29713;-33.888;151.150;2023-05-16T06:51:14;19.80;99.90
44047;DHT22;29713;-33.888;151.150;2023-05-16T06:53:41;19.70;99.90
44047;DHT22;29713;-33.888;151.150;2023-05-16T06:56:09;19.60;99.90
44047;DHT22;29713;-33.888;151.150;2023-05-16T06:58:36;19.60;99.90
44047;DHT22;29713;-33.888;151.150;2023-05-16T07:01:03;19.60;99.90
44047;DHT22;29713;-33.888;151.150;2023-05-16T07:03:31;19.50;99.90
44047;DHT22;29713;-33.888;151.150;2023-05-16T07:05:58;19.50;99.90
44047;DHT22;29713;-33.888;151.150;2023-05-16T07:08:25;19.40;99.90
44047;DHT22;29713;-33.888;151.150;2023-05-16T07:10:53;19.40;99.90
44047;DHT22;29713;-33.888;151.150;2023-05-16T07:13:20;19.40;99.90
44047;DHT22;29713;-33.888;151.150;2023-05-16T07:15:48;19.30;99.90
44047;DHT22;29713;-33.888;151.150;2023-05-16T07:18:15;19.30;99.90
44047;DHT22;29713;-33.888;151.150;2023-05-16T07:20:43;19.30;99.90
44047;DHT22;29713;-33.888;151.150;2023-05-16T07:23:11;19.20;99.90
44047;DHT22;29713;-33.888;151.150;2023-05-16T07:25:38;19.20;99.90
44047;DHT22;29713;-33.888;151.150;2023-05-16T07:28:05;19.10;99.90
44047;DHT22;29713;-33.888;151.150;2023-05-16T07:30:33;19.10;99.90
44047;DHT22;29713;-33.888;151.150;2023-05-16T07:33:00;19.10;99.90
44047;DHT22;29713;-33.888;151.150;2023-05-16T07:35:27;19.00;99.90
44047;DHT22;29713;-33.888;151.150;2023-05-16T07:37:55;19.00;99.90
44047;DHT22;29713;-33.888;151.150;2023-05-16T07:40:22;19.00;99.90
44047;DHT22;29713;-33.888;151.150;2023-05-16T07:42:54;19.00;99.90
44047;DHT22;29713;-33.888;151.150;2023-05-16T07:45:22;19.00;99.90
44047;DHT22;29713;-33.888;151.150;2023-05-16T07:47:49;18.90;99.90
44047;DHT22;29713;-33.888;151.150;2023-05-16T07:50:16;18.80;99.90
44047;DHT22;29713;-33.888;151.150;2023-05-16T07:52:44;18.80;99.90
44047;DHT22;29713;-33.888;151.150;2023-05-16T07:55:12;18.80;99.90
44047;DHT22;29713;-33.888;151.150;2023-05-16T07:57:39;18.80;99.90
44047;DHT22;29713;-33.888;151.150;2023-05-16T08:00:07;18.80;99.90
44047;DHT22;29713;-33.888;151.150;2023-05-16T08:02:35;18.70;99.90
44047;DHT22;29713;-33.888;151.150;2023-05-16T08:05:03;18.70;99.90
44047;DHT22;29713;-33.888;151.150;2023-05-16T08:07:31;18.70;99.90
44047;DHT22;29713;-33.888;151.150;2023-05-16T08:09:58;18.70;99.90
44047;DHT22;29713;-33.888;151.150;2023-05-16T08:12:26;18.60;99.90
44047;DHT22;29713;-33.888;151.150;2023-05-16T08:14:53;18.60;99.90
44047;DHT22;29713;-33.888;151.150;2023-05-16T08:17:21;18.50;99.90
44047;DHT22;29713;-33.888;151.150;2023-05-16T08:19:48;18.50;99.90
44047;DHT22;29713;-33.888;151.150;2023-05-16T08:22:15;18.40;99.90
44047;DHT22;29713;-33.888;151.150;2023-05-16T08:24:43;18.40;99.90
44047;DHT22;29713;-33.888;151.150;2023-05-16T08:27:10;18.30;99.90
44047;DHT22;29713;-33.888;151.150;2023-05-16T08:29:38;18.30;99.90
44047;DHT22;29713;-33.888;151.150;2023-05-16T08:32:07;18.30;99.90
44047;DHT22;29713;-33.888;151.150;2023-05-16T08:34:35;18.20;99.90
44047;DHT22;29713;-33.888;151.150;2023-05-16T08:37:02;18.20;99.90
44047;DHT22;29713;-33.888;151.150;2023-05-16T08:39:30;18.10;99.90
44047;DHT22;29713;-33.888;151.150;2023-05-16T08:41:57;18.10;99.90
44047;DHT22;29713;-33.888;151.150;2023-05-16T08:44:26;18.00;99.90
44047;DHT22;29713;-33.888;151.150;2023-05-16T08:46:54;17.90;99.90
44047;DHT22;29713;-33.888;151.150;2023-05-16T08:49:21;17.90;99.90
44047;DHT22;29713;-33.888;151.150;2023-05-16T08:51:50;17.90;99.90
44047;DHT22;29713;-33.888;151.150;2023-05-16T08:54:18;17.80;99.90
44047;DHT22;29713;-33.888;151.150;2023-05-16T08:56:45;17.80;99.90
44047;DHT22;29713;-33.888;151.150;2023-05-16T08:59:15;17.70;99.90
44047;DHT22;29713;-33.888;151.150;2023-05-16T09:01:43;17.70;99.90
44047;DHT22;29713;-33.888;151.150;2023-05-16T09:04:11;17.70;99.90
44047;DHT22;29713;-33.888;151.150;2023-05-16T09:06:38;17.70;99.90
44047;DHT22;29713;-33.888;151.150;2023-05-16T09:09:05;17.70;99.90
44047;DHT22;29713;-33.888;151.150;2023-05-16T09:11:34;17.70;99.90
44047;DHT22;29713;-33.888;151.150;2023-05-16T09:14:02;17.70;99.90
44047;DHT22;29713;-33.888;151.150;2023-05-16T09:16:31;17.70;99.90
44047;DHT22;29713;-33.888;151.150;2023-05-16T09:18:59;17.70;99.90
44047;DHT22;29713;-33.888;151.150;2023-05-16T09:21:32;17.70;99.90
44047;DHT22;29713;-33.888;151.150;2023-05-16T09:24:08;17.60;99.90
44047;DHT22;29713;-33.888;151.150;2023-05-16T09:26:37;17.70;99.90
44047;DHT22;29713;-33.888;151.150;2023-05-16T09:29:14;17.70;99.90
44047;DHT22;29713;-33.888;151.150;2023-05-16T09:31:42;17.60;99.90
44047;DHT22;29713;-33.888;151.150;2023-05-16T09:34:09;17.60;99.90
44047;DHT22;29713;-33.888;151.150;2023-05-16T09:36:38;17.60;99.90
44047;DHT22;29713;-33.888;151.150;2023-05-16T09:39:06;17.60;99.90
44047;DHT22;29713;-33.888;151.150;2023-05-16T09:41:34;17.60;99.90
44047;DHT22;29713;-33.888;151.150;2023-05-16T09:44:05;17.60;99.90
44047;DHT22;29713;-33.888;151.150;2023-05-16T09:46:36;17.60;99.90
44047;DHT22;29713;-33.888;151.150;2023-05-16T09:49:04;17.60;99.90
44047;DHT22;29713;-33.888;151.150;2023-05-16T09:51:31;17.60;99.90
44047;DHT22;29713;-33.888;151.150;2023-05-16T09:53:59;17.60;99.90
44047;DHT22;29713;-33.888;151.150;2023-05-16T09:56:27;17.60;99.90
44047;DHT22;29713;-33.888;151.150;2023-05-16T09:58:55;17.60;99.90
44047;DHT22;29713;-33.888;151.150;2023-05-16T10:01:23;17.60;99.90
44047;DHT22;29713;-33.888;151.150;2023-05-16T10:03:51;17.60;99.90
44047;DHT22;29713;-33.888;151.150;2023-05-16T10:06:18;17.70;99.90
44047;DHT22;29713;-33.888;151.150;2023-05-16T10:08:46;17.60;99.90
44047;DHT22;29713;-33.888;151.150;2023-05-16T10:11:13;17.60;99.90
44047;DHT22;29713;-33.888;151.150;2023-05-16T10:13:42;17.60;99.90
44047;DHT22;29713;-33.888;151.150;2023-05-16T10:16:15;17.60;99.90
44047;DHT22;29713;-33.888;151.150;2023-05-16T10:18:44;17.50;99.90
44047;DHT22;29713;-33.888;151.150;2023-05-16T10:21:16;17.40;99.90
44047;DHT22;29713;-33.888;151.150;2023-05-16T10:23:47;17.40;99.90
44047;DHT22;29713;-33.888;151.150;2023-05-16T10:26:16;17.20;99.90
44047;DHT22;29713;-33.888;151.150;2023-05-16T10:28:44;17.20;99.90
44047;DHT22;29713;-33.888;151.150;2023-05-16T10:31:12;17.20;99.90
44047;DHT22;29713;-33.888;151.150;2023-05-16T10:33:41;17.20;99.90
44047;DHT22;29713;-33.888;151.150;2023-05-16T10:36:09;17.20;99.90
44047;DHT22;29713;-33.888;151.150;2023-05-16T10:38:38;17.10;99.90
44047;DHT22;29713;-33.888;151.150;2023-05-16T10:41:07;17.10;99.90
44047;DHT22;29713;-33.888;151.150;2023-05-16T10:43:34;17.10;99.90
44047;DHT22;29713;-33.888;151.150;2023-05-16T10:46:04;17.00;99.90
44047;DHT22;29713;-33.888;151.150;2023-05-16T10:48:33;17.00;99.90
44047;DHT22;29713;-33.888;151.150;2023-05-16T10:51:02;17.00;99.90
44047;DHT22;29713;-33.888;151.150;2023-05-16T10:53:34;17.00;99.90
44047;DHT22;29713;-33.888;151.150;2023-05-16T10:56:06;16.90;99.90
44047;DHT22;29713;-33.888;151.150;2023-05-16T11:01:20;16.90;99.90
44047;DHT22;29713;-33.888;151.150;2023-05-16T11:06:43;16.90;99.90
44047;DHT22;29713;-33.888;151.150;2023-05-16T11:11:57;16.90;99.90
44047;DHT22;29713;-33.888;151.150;2023-05-16T11:17:14;16.80;99.90
44047;DHT22;29713;-33.888;151.150;2023-05-16T11:25:03;16.70;99.90
44047;DHT22;29713;-33.888;151.150;2023-05-16T11:32:37;16.50;99.90
44047;DHT22;29713;-33.888;151.150;2023-05-16T11:35:06;16.50;99.90
44047;DHT22;29713;-33.888;151.150;2023-05-16T11:37:35;16.50;99.90
44047;DHT22;29713;-33.888;151.150;2023-05-16T11:40:03;16.40;99.90
44047;DHT22;29713;-33.888;151.150;2023-05-16T11:42:40;16.40;99.90
44047;DHT22;29713;-33.888;151.150;2023-05-16T11:45:10;16.40;99.90
44047;DHT22;29713;-33.888;151.150;2023-05-16T11:47:42;16.40;99.90
44047;DHT22;29713;-33.888;151.150;2023-05-16T11:50:14;16.30;99.90
44047;DHT22;29713;-33.888;151.150;2023-05-16T11:52:47;16.20;99.90
44047;DHT22;29713;-33.888;151.150;2023-05-16T11:55:16;16.20;99.90
44047;DHT22;29713;-33.888;151.150;2023-05-16T11:57:46;16.20;99.90
44047;DHT22;29713;-33.888;151.150;2023-05-16T12:00:15;16.20;99.90
44047;DHT22;29713;-33.888;151.150;2023-05-16T12:02:47;16.20;99.90
44047;DHT22;29713;-33.888;151.150;2023-05-16T12:05:16;16.10;99.90
44047;DHT22;29713;-33.888;151.150;2023-05-16T12:07:44;16.00;99.90
44047;DHT22;29713;-33.888;151.150;2023-05-16T12:10:13;16.00;99.90
44047;DHT22;29713;-33.888;151.150;2023-05-16T12:12:43;15.90;99.90
44047;DHT22;29713;-33.888;151.150;2023-05-16T12:15:11;15.80;99.90
44047;DHT22;29713;-33.888;151.150;2023-05-16T12:17:40;15.80;99.90
44047;DHT22;29713;-33.888;151.150;2023-05-16T12:20:09;15.80;99.90
44047;DHT22;29713;-33.888;151.150;2023-05-16T12:22:39;15.80;99.90
44047;DHT22;29713;-33.888;151.150;2023-05-16T12:25:32;15.80;99.90
44047;DHT22;29713;-33.888;151.150;2023-05-16T12:28:07;15.80;99.90
44047;DHT22;29713;-33.888;151.150;2023-05-16T12:30:35;15.90;99.90
44047;DHT22;29713;-33.888;151.150;2023-05-16T12:33:13;15.90;99.90
44047;DHT22;29713;-33.888;151.150;2023-05-16T12:35:43;15.90;99.90
44047;DHT22;29713;-33.888;151.150;2023-05-16T12:38:12;15.90;99.90
44047;DHT22;29713;-33.888;151.150;2023-05-16T12:40:41;16.00;99.90
44047;DHT22;29713;-33.888;151.150;2023-05-16T12:43:22;16.00;99.90
44047;DHT22;29713;-33.888;151.150;2023-05-16T12:48:18;16.00;99.90
44047;DHT22;29713;-33.888;151.150;2023-05-16T12:50:46;16.10;99.90
44047;DHT22;29713;-33.888;151.150;2023-05-16T12:53:15;16.20;99.90
44047;DHT22;29713;-33.888;151.150;2023-05-16T12:55:43;16.30;99.90
44047;DHT22;29713;-33.888;151.150;2023-05-16T12:58:11;16.30;99.90
44047;DHT22;29713;-33.888;151.150;2023-05-16T13:00:39;16.30;99.90
44047;DHT22;29713;-33.888;151.150;2023-05-16T13:03:06;16.20;99.90
44047;DHT22;29713;-33.888;151.150;2023-05-16T13:05:34;16.30;99.90
44047;DHT22;29713;-33.888;151.150;2023-05-16T13:08:01;16.20;99.90
44047;DHT22;29713;-33.888;151.150;2023-05-16T13:10:29;16.20;99.90
44047;DHT22;29713;-33.888;151.150;2023-05-16T13:12:56;16.20;99.90
44047;DHT22;29713;-33.888;151.150;2023-05-16T13:15:26;16.20;99.90
44047;DHT22;29713;-33.888;151.150;2023-05-16T13:17:54;16.10;99.90
44047;DHT22;29713;-33.888;151.150;2023-05-16T13:20:21;16.10;99.90
44047;DHT22;29713;-33.888;151.150;2023-05-16T13:22:49;16.10;99.90
44047;DHT22;29713;-33.888;151.150;2023-05-16T13:25:16;16.00;99.90
44047;DHT22;29713;-33.888;151.150;2023-05-16T13:27:43;16.00;99.90
44047;DHT22;29713;-33.888;151.150;2023-05-16T13:30:11;15.90;99.90
44047;DHT22;29713;-33.888;151.150;2023-05-16T13:32:39;15.90;99.90
44047;DHT22;29713;-33.888;151.150;2023-05-16T13:35:07;15.90;99.90
44047;DHT22;29713;-33.888;151.150;2023-05-16T13:37:36;15.90;99.90
44047;DHT22;29713;-33.888;151.150;2023-05-16T13:40:04;15.90;99.90
44047;DHT22;29713;-33.888;151.150;2023-05-16T13:42:38;15.80;99.90
44047;DHT22;29713;-33.888;151.150;2023-05-16T13:45:06;15.80;99.90
44047;DHT22;29713;-33.888;151.150;2023-05-16T13:47:34;15.80;99.90
44047;DHT22;29713;-33.888;151.150;2023-05-16T13:50:02;15.70;99.90
44047;DHT22;29713;-33.888;151.150;2023-05-16T13:52:33;15.60;99.90
44047;DHT22;29713;-33.888;151.150;2023-05-16T13:55:01;15.60;99.90
44047;DHT22;29713;-33.888;151.150;2023-05-16T13:57:29;15.50;99.90
44047;DHT22;29713;-33.888;151.150;2023-05-16T13:59:57;15.60;99.90
44047;DHT22;29713;-33.888;151.150;2023-05-16T14:02:25;15.50;99.90
44047;DHT22;29713;-33.888;151.150;2023-05-16T14:04:53;15.50;99.90
44047;DHT22;29713;-33.888;151.150;2023-05-16T14:07:20;15.50;99.90
44047;DHT22;29713;-33.888;151.150;2023-05-16T14:09:47;15.50;99.90
44047;DHT22;29713;-33.888;151.150;2023-05-16T14:12:14;15.50;99.90
44047;DHT22;29713;-33.888;151.150;2023-05-16T14:14:42;15.40;99.90
44047;DHT22;29713;-33.888;151.150;2023-05-16T14:17:09;15.30;99.90
44047;DHT22;29713;-33.888;151.150;2023-05-16T14:19:37;15.30;99.90
44047;DHT22;29713;-33.888;151.150;2023-05-16T14:22:04;15.30;99.90
44047;DHT22;29713;-33.888;151.150;2023-05-16T14:24:31;15.30;99.90
44047;DHT22;29713;-33.888;151.150;2023-05-16T14:26:59;15.20;99.90
44047;DHT22;29713;-33.888;151.150;2023-05-16T14:29:27;15.10;99.90
44047;DHT22;29713;-33.888;151.150;2023-05-16T14:31:54;15.10;99.90
44047;DHT22;29713;-33.888;151.150;2023-05-16T14:34:21;15.00;99.90
44047;DHT22;29713;-33.888;151.150;2023-05-16T14:36:49;15.00;99.90
44047;DHT22;29713;-33.888;151.150;2023-05-16T14:39:16;14.90;99.90
44047;DHT22;29713;-33.888;151.150;2023-05-16T14:41:44;14.90;99.90
44047;DHT22;29713;-33.888;151.150;2023-05-16T14:44:11;14.90;99.90
44047;DHT22;29713;-33.888;151.150;2023-05-16T14:46:39;14.90;99.90
44047;DHT22;29713;-33.888;151.150;2023-05-16T14:49:06;14.80;99.90
44047;DHT22;29713;-33.888;151.150;2023-05-16T14:51:34;14.80;99.90
44047;DHT22;29713;-33.888;151.150;2023-05-16T14:54:01;14.70;99.90
44047;DHT22;29713;-33.888;151.150;2023-05-16T14:56:29;14.70;99.90
44047;DHT22;29713;-33.888;151.150;2023-05-16T14:58:57;14.70;99.90
44047;DHT22;29713;-33.888;151.150;2023-05-16T15:01:25;14.60;99.90
44047;DHT22;29713;-33.888;151.150;2023-05-16T15:03:53;14.70;99.90
44047;DHT22;29713;-33.888;151.150;2023-05-16T15:06:20;14.60;99.90
44047;DHT22;29713;-33.888;151.150;2023-05-16T15:08:47;14.70;99.90
44047;DHT22;29713;-33.888;151.150;2023-05-16T15:11:15;14.60;99.90
44047;DHT22;29713;-33.888;151.150;2023-05-16T15:13:42;14.60;99.90
44047;DHT22;29713;-33.888;151.150;2023-05-16T15:16:09;14.60;99.90
44047;DHT22;29713;-33.888;151.150;2023-05-16T15:18:37;14.50;99.90
44047;DHT22;29713;-33.888;151.150;2023-05-16T15:21:07;14.50;99.90
44047;DHT22;29713;-33.888;151.150;2023-05-16T15:23:34;14.40;99.90
44047;DHT22;29713;-33.888;151.150;2023-05-16T15:26:02;14.40;99.90
44047;DHT22;29713;-33.888;151.150;2023-05-16T15:28:29;14.40;99.90
44047;DHT22;29713;-33.888;151.150;2023-05-16T15:30:56;14.40;99.90
44047;DHT22;29713;-33.888;151.150;2023-05-16T15:33:24;14.40;99.90